Göttingen, Allemagne

03:22 CEST le 04 août 2015 (GMT +0200)
göttingen,de | | Change Station
CLOSE
Current Station
Stations météorologiques personnelles
Location: Göttingen, NIEDERSACHSEN
Altitude: 741 ft
Stations météo à proximité

Alt. 741 ft 51.53 °N, 9.86 °E | Updated 18 seconds ago

Partly Cloudy
Partiellement nuageux
68.0 ° F
Paraît 68.0 ° F
N
0.0
Vent Variable Vent de SSO
Gusts 0.0 mph

Aujourd'hui
Haut(e) -- | Bas -- ° F
--% Risque de précip.
Hier
Haut(e) -- | Bas -- ° F
Precip. -- pouce
5:47 AM 9:03 PM
Lune gibbeuse décroissante, 82% visible
Pression 29.95 pouce
Visibilité 6.2 Miles terrestres
Nuages Peu 30000 ft
Point de rosée 58 ° F
Humidité 70%
Précipitations 0.00 pouce
Profondeur de la couche neigeuse Non disponible.
UV 0.0 sur 12
Pollen Non disponible.
Qualité de l'air Non disponible.
Flu Activity Non disponible.
METAR ETHF 040020Z 28003KT 9999 FEW300 15/13 Q1014 BLU+

More Conditions Fewer Conditions

Pression 29.95 pouce
Visibilité 6.2 Miles terrestres
Nuages Peu 30000 ft
Point de rosée 58 ° F
Humidité 70%
Précipitations 0.00 pouce
Profondeur de la couche neigeuse Non disponible.
UV 0.0 sur 12
Pollen Non disponible.
Qualité de l'air Non disponible.
Flu Activity Non disponible.
METAR ETHF 040020Z 28003KT 9999 FEW300 15/13 Q1014 BLU+

More Conditions Fewer Conditions

10-Day Weather Forecast

×

Almanac

Astronomie

Aug. 04, 2015 Lever Coucher
Temps réel
Crépuscule civil
Crépuscule nautique
Crépuscule astronomique
Lune
Durée de lumière visible
Longueur du jour
Tomorrow will be .
, % of the Moon is Illuminated

Extrêmes aujourd'hui

Country Highs Country Lows

Community

WunderPhotos

Upload Photos

1,843,814 Photos téléchargées !

WunderBlogs® & News

Nearby

Qualité de l'air

  Qualité de l'air Indice de la qualité de l'air Polluant
Not available.

Épaisseur de neige

Station Depth Altitude

Activité sismique

Ville Distance Mag. Time & Date
Minimum magnitude displayed is 2.5.

Températures des eaux côtières

Lieu Température

Stations

Stations météo à proximité

Emplacement de la station Température Refroidissement éolien Point de rosée Humidité Vent Precip. Alt. Mise à jour Type